Time;durP1;ratioP1;P1;durP2;ratioP2;P2;SDS_P1;SDS_P2;PMS_P1;PMS_P2;Temp;Humidity;BMP_temperature;BMP_pressure;BME280_temperature;BME280_humidity;BME280_pressure;Samples;Min_cycle;Max_cycle;Signal;HPM_P1;HPM_P2
2022/06/09 00:01:26;;;;;;;3.00;0.65;;;11.70;99.90;;;;;;5011474;28;20113;-68
2022/06/09 00:04:09;;;;;;;2.72;0.50;;;11.90;99.90;;;;;;5012798;28;20025;-68
2022/06/09 00:07:03;;;;;;;1.40;0.30;;;11.80;99.90;;;;;;5012114;28;20030;-68
2022/06/09 00:09:44;;;;;;;1.50;0.30;;;11.90;99.90;;;;;;5012332;28;20490;-68
2022/06/09 00:12:11;;;;;;;2.38;0.30;;;12.00;99.90;;;;;;5012782;28;20038;-68
2022/06/09 00:14:39;;;;;;;2.10;0.28;;;12.00;99.90;;;;;;5026264;28;20040;-68
2022/06/09 00:17:07;;;;;;;2.55;0.30;;;11.90;99.90;;;;;;5015481;28;20127;-68
2022/06/09 00:19:37;;;;;;;1.30;0.40;;;12.00;99.90;;;;;;5012916;28;20635;-68
2022/06/09 00:22:05;;;;;;;1.10;0.32;;;12.00;99.90;;;;;;5017395;28;20044;-68
2022/06/09 00:24:32;;;;;;;4.25;0.68;;;12.20;99.90;;;;;;5015469;28;20526;-68
2022/06/09 00:27:00;;;;;;;0.90;0.20;;;12.30;99.90;;;;;;5016786;28;20026;-68
2022/06/09 00:29:27;;;;;;;4.05;0.45;;;12.30;99.90;;;;;;5013529;28;20389;-68
2022/06/09 00:31:55;;;;;;;0.77;0.40;;;12.40;99.90;;;;;;5015456;28;20023;-68
2022/06/09 00:34:22;;;;;;;1.42;0.45;;;12.60;99.90;;;;;;5010641;28;20026;-68
2022/06/09 00:36:49;;;;;;;1.33;0.30;;;12.80;99.90;;;;;;5019628;28;20474;-67
2022/06/09 00:39:16;;;;;;;2.38;0.55;;;12.70;99.90;;;;;;5030986;28;20421;-68
2022/06/09 00:41:45;;;;;;;4.43;0.70;;;12.70;99.90;;;;;;5023027;28;20394;-68
2022/06/09 00:44:17;;;;;;;1.65;0.40;;;12.80;99.90;;;;;;5016022;28;20021;-67
2022/06/09 00:46:47;;;;;;;2.15;0.32;;;12.90;99.90;;;;;;5024399;28;20108;-68
2022/06/09 00:49:24;;;;;;;1.77;0.30;;;12.90;99.90;;;;;;5020481;28;20064;-68
2022/06/09 00:51:56;;;;;;;1.08;0.30;;;12.90;99.90;;;;;;5013698;28;20434;-68
2022/06/09 00:54:47;;;;;;;2.05;0.20;;;13.10;99.90;;;;;;5033053;28;20528;-68
2022/06/09 00:57:26;;;;;;;4.00;0.30;;;12.90;99.90;;;;;;5016656;28;20141;-68
2022/06/09 01:00:01;;;;;;;3.47;0.52;;;13.10;99.90;;;;;;5015521;28;20018;-67
2022/06/09 01:02:29;;;;;;;1.90;0.50;;;13.00;99.90;;;;;;5014588;28;20088;-67
2022/06/09 01:04:56;;;;;;;2.15;0.75;;;13.10;99.90;;;;;;5016673;28;20399;-68
2022/06/09 01:07:32;;;;;;;3.22;0.30;;;13.20;99.90;;;;;;5022941;28;20558;-67
2022/06/09 01:09:59;;;;;;;0.60;0.30;;;13.30;99.50;;;;;;5023832;28;20390;-68
2022/06/09 01:12:35;;;;;;;3.22;0.30;;;13.40;99.90;;;;;;5031563;28;20021;-68
2022/06/09 01:15:06;;;;;;;2.70;0.20;;;13.40;99.70;;;;;;5014663;28;20041;-68
2022/06/09 01:17:37;;;;;;;1.15;0.35;;;13.40;99.80;;;;;;5014102;28;20026;-67
2022/06/09 01:20:25;;;;;;;1.48;0.30;;;13.50;99.60;;;;;;5015773;28;20026;-68
2022/06/09 01:23:29;;;;;;;3.95;0.28;;;13.60;99.80;;;;;;5020179;28;20049;-68
2022/06/09 01:26:07;;;;;;;1.67;0.30;;;13.60;99.60;;;;;;5019329;28;20037;-68
2022/06/09 01:28:59;;;;;;;1.67;0.10;;;13.80;98.70;;;;;;5023525;28;20026;-68
2022/06/09 01:31:50;;;;;;;1.38;0.15;;;13.90;98.00;;;;;;5016113;28;20037;-68
2022/06/09 01:34:24;;;;;;;2.83;0.20;;;14.10;98.80;;;;;;5014215;28;20108;-68
2022/06/09 01:37:13;;;;;;;2.80;0.28;;;14.00;99.40;;;;;;5025003;28;20025;-68
2022/06/09 01:40:12;;;;;;;1.50;0.20;;;14.10;99.00;;;;;;5033976;28;20489;-68
2022/06/09 01:42:45;;;;;;;1.27;0.20;;;14.20;98.40;;;;;;5020575;28;20037;-67
2022/06/09 01:45:21;;;;;;;1.55;0.20;;;14.10;97.10;;;;;;5043301;28;20390;-68
2022/06/09 01:48:14;;;;;;;0.90;0.08;;;14.20;97.60;;;;;;5018519;28;20064;-68
2022/06/09 01:51:05;;;;;;;0.50;0.08;;;14.20;97.40;;;;;;5025972;28;20514;-68
2022/06/09 01:53:35;;;;;;;1.17;0.10;;;14.20;97.70;;;;;;5013475;28;20528;-68
2022/06/09 01:56:32;;;;;;;0.50;0.10;;;14.50;97.50;;;;;;5013961;28;20018;-68
2022/06/09 01:59:00;;;;;;;1.80;0.10;;;14.40;97.00;;;;;;5014640;28;20433;-68
2022/06/09 02:01:38;;;;;;;0.10;0.10;;;14.40;96.60;;;;;;5020845;28;20043;-68
2022/06/09 02:04:09;;;;;;;1.55;0.10;;;14.40;96.80;;;;;;5020001;28;20401;-68
2022/06/09 02:06:37;;;;;;;0.60;0.10;;;14.50;96.80;;;;;;5031848;28;20064;-67
2022/06/09 02:09:08;;;;;;;0.95;0.15;;;14.50;96.50;;;;;;5013650;28;20046;-67
2022/06/09 02:11:49;;;;;;;0.45;0.30;;;14.60;96.60;;;;;;5013321;28;20036;-67
2022/06/09 02:14:18;;;;;;;1.00;0.15;;;14.60;96.80;;;;;;5013615;28;20052;-67
2022/06/09 02:16:45;;;;;;;11.90;0.60;;;14.90;96.60;;;;;;5019128;28;20091;-68
2022/06/09 02:19:13;;;;;;;0.38;0.03;;;15.10;96.50;;;;;;5013966;28;20049;-67
2022/06/09 02:21:41;;;;;;;3.58;0.20;;;15.20;95.90;;;;;;5013746;28;20026;-68
2022/06/09 02:24:08;;;;;;;1.10;0.05;;;15.70;96.10;;;;;;5028204;28;20068;-68
2022/06/09 02:26:36;;;;;;;0.52;0.10;;;15.50;95.80;;;;;;5023456;28;20033;-68
2022/06/09 02:29:03;;;;;;;0.25;0.17;;;15.60;95.80;;;;;;5012725;28;20136;-67
2022/06/09 02:31:30;;;;;;;0.17;0.03;;;15.70;95.60;;;;;;5019515;28;20033;-67
2022/06/09 02:33:58;;;;;;;0.30;0.00;;;15.60;95.60;;;;;;5019957;28;20522;-67
2022/06/09 02:36:25;;;;;;;1.45;0.65;;;15.90;95.50;;;;;;5013395;28;20034;-68
2022/06/09 02:38:53;;;;;;;0.10;0.00;;;16.10;95.50;;;;;;5012909;28;20053;-67
2022/06/09 02:41:21;;;;;;;0.80;0.20;;;16.10;95.40;;;;;;5012443;28;20037;-68
2022/06/09 02:43:48;;;;;;;1.38;0.10;;;15.90;95.40;;;;;;5015130;28;20034;-65
2022/06/09 02:46:16;;;;;;;0.10;0.10;;;15.70;95.60;;;;;;5012908;28;20030;-67
2022/06/09 02:48:43;;;;;;;0.40;0.10;;;15.90;95.70;;;;;;5012092;28;20080;-68
2022/06/09 02:51:27;;;;;;;1.75;0.10;;;15.70;95.60;;;;;;5012297;28;20087;-68
2022/06/09 02:53:57;;;;;;;0.90;0.10;;;15.70;95.50;;;;;;5013092;28;20053;-68
2022/06/09 02:56:25;;;;;;;0.43;0.10;;;15.60;95.70;;;;;;5012700;28;20534;-67
2022/06/09 02:58:53;;;;;;;1.10;0.10;;;15.70;95.30;;;;;;5037627;28;20029;-68
2022/06/09 03:01:21;;;;;;;0.30;0.10;;;16.00;95.50;;;;;;5021787;28;20021;-67
2022/06/09 03:03:48;;;;;;;1.23;0.30;;;16.00;95.70;;;;;;5024965;28;20382;-67
2022/06/09 03:06:16;;;;;;;0.05;0.00;;;15.90;95.20;;;;;;5015986;28;20021;-67
2022/06/09 03:08:43;;;;;;;0.85;0.30;;;15.90;95.80;;;;;;5032837;28;20053;-68
2022/06/09 03:11:11;;;;;;;1.55;0.10;;;15.80;95.40;;;;;;5030879;28;20482;-68
2022/06/09 03:13:43;;;;;;;1.17;0.20;;;15.70;95.10;;;;;;5025359;28;20423;-67
2022/06/09 03:16:13;;;;;;;0.55;0.10;;;15.60;95.50;;;;;;5035792;28;20075;-68
2022/06/09 03:18:41;;;;;;;0.70;0.30;;;15.60;95.10;;;;;;5023489;28;20021;-67
2022/06/09 03:21:08;;;;;;;2.20;0.50;;;15.60;95.40;;;;;;5022045;28;20065;-68
2022/06/09 03:23:35;;;;;;;2.20;0.20;;;15.60;95.40;;;;;;5012783;28;20128;-68
2022/06/09 03:26:03;;;;;;;0.50;0.10;;;15.80;95.60;;;;;;5012470;28;20017;-67
2022/06/09 03:28:30;;;;;;;0.70;0.10;;;15.90;95.50;;;;;;5012378;28;20030;-68
2022/06/09 03:30:59;;;;;;;1.63;0.10;;;16.00;96.20;;;;;;5012124;28;20022;-68
2022/06/09 03:33:26;;;;;;;2.28;0.17;;;16.20;96.30;;;;;;5012457;28;20115;-67
2022/06/09 03:35:53;;;;;;;2.20;0.90;;;16.20;95.00;;;;;;5013695;28;20030;-67
2022/06/09 03:38:21;;;;;;;1.27;0.30;;;16.00;95.10;;;;;;5017339;28;20034;-67
2022/06/09 03:40:48;;;;;;;0.30;0.10;;;15.60;95.40;;;;;;5012232;28;20028;-67
2022/06/09 03:43:15;;;;;;;0.75;0.00;;;15.60;95.20;;;;;;5011436;28;20044;-67
2022/06/09 03:45:42;;;;;;;1.30;0.10;;;15.60;96.00;;;;;;5012549;28;20034;-67
2022/06/09 03:48:10;;;;;;;1.70;0.47;;;15.70;95.90;;;;;;5012790;28;20458;-67
2022/06/09 03:50:37;;;;;;;0.77;0.10;;;15.70;95.40;;;;;;5012604;28;20022;-67
2022/06/09 03:53:05;;;;;;;0.40;0.10;;;15.60;95.80;;;;;;5012435;28;20101;-67
2022/06/09 03:55:32;;;;;;;0.20;0.00;;;15.50;95.60;;;;;;5012268;28;20030;-67
2022/06/09 03:58:00;;;;;;;1.33;0.10;;;15.40;95.20;;;;;;5012734;28;20032;-67
2022/06/09 04:00:47;;;;;;;0.45;0.15;;;15.20;95.00;;;;;;5012031;28;20561;-67
2022/06/09 04:03:15;;;;;;;1.75;0.28;;;15.30;95.10;;;;;;5011440;28;20121;-68
2022/06/09 04:05:42;;;;;;;1.10;0.00;;;15.30;95.30;;;;;;5011452;28;21382;-67
2022/06/09 04:08:13;;;;;;;0.30;0.10;;;15.30;95.20;;;;;;5013045;28;20037;-67
2022/06/09 04:10:41;;;;;;;0.25;0.00;;;15.30;95.30;;;;;;5018783;28;20017;-67
2022/06/09 04:13:08;;;;;;;1.25;0.10;;;15.20;95.30;;;;;;5032614;28;20033;-67
2022/06/09 04:15:37;;;;;;;0.00;0.00;;;15.20;95.40;;;;;;5035436;28;20029;-68
2022/06/09 04:18:04;;;;;;;0.57;0.25;;;15.30;95.60;;;;;;5026923;28;20041;-67
2022/06/09 04:20:32;;;;;;;0.13;0.00;;;15.30;95.40;;;;;;5028953;28;20025;-67
2022/06/09 04:22:59;;;;;;;0.30;0.10;;;15.20;95.50;;;;;;5025632;28;20393;-67
2022/06/09 04:25:26;;;;;;;0.20;0.00;;;15.30;95.70;;;;;;5017581;28;20108;-67
2022/06/09 04:27:54;;;;;;;1.75;0.35;;;15.30;95.40;;;;;;5027839;28;20084;-67
2022/06/09 04:30:22;;;;;;;1.92;0.17;;;15.30;95.10;;;;;;5045326;28;20024;-67
2022/06/09 04:32:50;;;;;;;0.45;0.10;;;15.20;95.10;;;;;;5017545;28;20030;-67
2022/06/09 04:35:18;;;;;;;0.75;0.20;;;15.10;95.10;;;;;;5025762;28;20025;-67
2022/06/09 04:38:00;;;;;;;0.50;0.05;;;15.10;95.20;;;;;;5020021;28;20057;-67
2022/06/09 04:40:36;;;;;;;0.57;0.20;;;15.10;95.10;;;;;;5026082;28;20056;-67
2022/06/09 04:43:06;;;;;;;0.40;0.00;;;15.20;95.30;;;;;;5026684;28;20049;-67
2022/06/09 04:45:34;;;;;;;0.17;0.10;;;15.20;95.50;;;;;;5024986;28;20367;-67
2022/06/09 04:48:01;;;;;;;0.20;0.10;;;15.20;95.10;;;;;;5021272;28;20105;-67
2022/06/09 04:50:29;;;;;;;2.40;0.10;;;15.20;95.50;;;;;;5035534;28;20025;-67
2022/06/09 04:52:57;;;;;;;2.33;0.03;;;15.10;95.40;;;;;;5034470;28;20052;-67
2022/06/09 04:55:24;;;;;;;0.10;0.00;;;15.20;95.50;;;;;;5021498;28;20044;-67
2022/06/09 04:57:52;;;;;;;1.45;0.10;;;15.10;95.50;;;;;;5022654;28;20044;-67
2022/06/09 05:00:19;;;;;;;1.35;0.13;;;15.20;95.50;;;;;;5025943;28;20053;-67
2022/06/09 05:02:46;;;;;;;1.90;0.10;;;15.20;95.60;;;;;;5019477;28;20437;-67
2022/06/09 05:05:27;;;;;;;1.02;0.00;;;15.20;96.00;;;;;;5029809;28;20042;-67
2022/06/09 05:07:54;;;;;;;1.48;0.10;;;15.20;95.50;;;;;;5022084;28;20024;-67
2022/06/09 05:10:21;;;;;;;1.33;0.20;;;15.10;95.30;;;;;;5032095;28;20037;-67
2022/06/09 05:12:49;;;;;;;0.75;0.17;;;15.10;95.50;;;;;;5031484;28;20517;-68
2022/06/09 05:15:19;;;;;;;1.45;0.10;;;15.10;95.40;;;;;;5028518;28;20034;-68
2022/06/09 05:17:47;;;;;;;0.43;0.00;;;15.10;95.30;;;;;;5033353;28;20029;-68
2022/06/09 05:20:17;;;;;;;0.20;0.00;;;14.90;95.30;;;;;;5032490;28;20057;-67
2022/06/09 05:22:44;;;;;;;0.63;0.00;;;14.80;95.40;;;;;;5045075;28;20067;-68
2022/06/09 05:25:12;;;;;;;0.80;0.10;;;14.90;95.80;;;;;;5053499;28;20021;-67
2022/06/09 05:27:40;;;;;;;1.88;0.00;;;14.80;95.30;;;;;;5032792;28;20068;-67
2022/06/09 05:30:11;;;;;;;0.20;0.08;;;14.80;95.50;;;;;;5028447;28;20041;-68
2022/06/09 05:32:39;;;;;;;1.00;0.05;;;14.80;95.60;;;;;;5022482;28;20486;-67
2022/06/09 05:35:06;;;;;;;0.50;0.10;;;14.80;95.70;;;;;;5034414;28;20022;-68
2022/06/09 05:45:50;;;;;;;0.17;0.00;;;14.70;96.00;;;;;;5021929;28;20075;-68
2022/06/09 05:48:18;;;;;;;0.22;0.10;;;14.70;96.00;;;;;;5028869;28;20034;-68
2022/06/09 05:50:45;;;;;;;1.45;0.10;;;14.60;96.00;;;;;;5025743;28;20038;-68
2022/06/09 05:53:13;;;;;;;0.82;0.03;;;14.60;96.20;;;;;;5043033;28;20118;-68
2022/06/09 05:55:40;;;;;;;3.15;0.13;;;14.60;96.50;;;;;;5039660;28;20036;-67
2022/06/09 05:58:07;;;;;;;3.75;0.10;;;14.40;96.90;;;;;;5023081;28;20052;-67
2022/06/09 06:00:35;;;;;;;0.22;0.00;;;14.30;97.20;;;;;;5021413;28;20125;-67
2022/06/09 06:03:02;;;;;;;0.38;0.00;;;14.20;97.50;;;;;;5019591;28;20026;-67
2022/06/09 06:08:14;;;;;;;1.73;0.35;;;14.10;97.70;;;;;;5013413;28;20041;-67
2022/06/09 06:10:42;;;;;;;0.57;0.10;;;14.00;97.70;;;;;;5013307;28;20022;-67
2022/06/09 06:13:09;;;;;;;0.10;0.00;;;14.00;97.60;;;;;;5013954;28;20471;-67
2022/06/09 06:15:39;;;;;;;0.08;0.00;;;13.90;97.70;;;;;;5013522;28;20034;-67
2022/06/09 06:18:07;;;;;;;0.10;0.03;;;13.80;97.70;;;;;;5016703;28;20036;-67
2022/06/09 06:20:35;;;;;;;0.20;0.00;;;13.80;97.70;;;;;;5013869;28;20014;-67
2022/06/09 06:23:02;;;;;;;2.03;0.17;;;13.70;97.80;;;;;;5013673;28;20074;-67
2022/06/09 06:25:30;;;;;;;1.17;0.10;;;13.70;97.90;;;;;;5015221;28;20091;-67
2022/06/09 06:27:59;;;;;;;0.47;0.20;;;13.60;97.80;;;;;;5033219;28;20393;-67
2022/06/09 06:30:26;;;;;;;0.43;0.00;;;13.60;97.80;;;;;;5032560;28;20049;-67
2022/06/09 06:32:55;;;;;;;0.20;0.10;;;13.50;97.90;;;;;;5014194;28;20030;-67
2022/06/09 06:35:22;;;;;;;2.80;1.65;;;13.50;98.10;;;;;;5016233;28;20018;-67
2022/06/09 06:37:50;;;;;;;2.38;1.50;;;13.50;98.20;;;;;;5013151;28;20482;-68
2022/06/09 06:40:18;;;;;;;1.40;0.10;;;13.40;98.40;;;;;;5014503;28;20026;-68
2022/06/09 06:42:45;;;;;;;3.13;0.50;;;13.30;98.40;;;;;;5012234;28;20474;-67
2022/06/09 06:45:14;;;;;;;1.35;0.52;;;13.30;98.40;;;;;;5026698;28;20463;-67
2022/06/09 06:47:42;;;;;;;0.70;0.32;;;13.20;98.50;;;;;;5019954;28;20017;-67
2022/06/09 06:50:11;;;;;;;0.13;0.10;;;13.20;98.70;;;;;;5026637;28;20497;-67
2022/06/09 06:52:39;;;;;;;0.30;0.10;;;13.10;98.70;;;;;;5025760;28;20084;-68
2022/06/09 06:55:10;;;;;;;2.13;0.10;;;13.10;98.90;;;;;;5031932;28;20120;-67
2022/06/09 06:57:38;;;;;;;0.50;0.10;;;13.00;99.00;;;;;;5029977;28;20037;-67
2022/06/09 07:00:08;;;;;;;0.90;0.10;;;13.00;99.10;;;;;;5032491;28;20040;-67
2022/06/09 07:02:35;;;;;;;0.57;0.10;;;12.90;99.10;;;;;;5021782;28;20362;-67
2022/06/09 07:05:04;;;;;;;0.50;0.20;;;12.80;99.20;;;;;;5019942;28;20099;-68
2022/06/09 07:07:31;;;;;;;0.75;0.00;;;12.80;99.40;;;;;;5020250;28;20060;-67
2022/06/09 07:09:58;;;;;;;1.73;0.40;;;12.70;99.50;;;;;;5032478;28;20021;-67
2022/06/09 07:12:25;;;;;;;1.27;0.20;;;12.70;99.50;;;;;;5028172;28;20029;-67
2022/06/09 07:14:53;;;;;;;1.20;0.08;;;12.70;99.60;;;;;;5020968;28;20030;-67
2022/06/09 07:17:20;;;;;;;0.70;0.10;;;12.70;99.60;;;;;;5020390;28;20546;-68
2022/06/09 07:19:47;;;;;;;0.98;0.13;;;12.60;99.60;;;;;;5017956;28;20037;-68
2022/06/09 07:22:14;;;;;;;0.20;0.10;;;12.50;99.90;;;;;;5026730;28;20391;-68
2022/06/09 07:24:43;;;;;;;2.53;0.10;;;12.50;99.90;;;;;;5029953;28;20032;-67
2022/06/09 07:27:10;;;;;;;0.20;0.10;;;12.50;99.90;;;;;;5024092;28;20032;-67
2022/06/09 07:29:37;;;;;;;4.38;1.55;;;12.40;99.90;;;;;;5022982;28;20025;-67
2022/06/09 07:32:05;;;;;;;0.20;0.15;;;12.40;99.90;;;;;;5031582;28;20125;-67
2022/06/09 07:34:33;;;;;;;0.38;0.10;;;12.40;99.90;;;;;;5031176;28;20030;-67
2022/06/09 07:37:01;;;;;;;1.98;0.15;;;12.40;99.90;;;;;;5030969;28;20056;-68
2022/06/09 07:39:28;;;;;;;1.52;0.20;;;12.30;99.90;;;;;;5027749;28;20033;-69
2022/06/09 07:41:55;;;;;;;0.60;0.10;;;12.30;99.90;;;;;;5025037;28;20026;-68
2022/06/09 07:44:23;;;;;;;0.45;0.20;;;12.30;99.90;;;;;;5041913;28;20032;-68
2022/06/09 07:46:51;;;;;;;0.75;0.20;;;12.20;99.90;;;;;;5035147;28;20078;-69
2022/06/09 07:49:18;;;;;;;0.77;0.20;;;12.20;99.90;;;;;;5029041;28;20029;-68
2022/06/09 07:51:46;;;;;;;1.42;0.32;;;12.20;99.90;;;;;;5025806;28;20109;-68
2022/06/09 07:54:14;;;;;;;2.92;0.30;;;12.20;99.90;;;;;;5036085;28;20054;-68
2022/06/09 07:56:42;;;;;;;3.38;0.88;;;12.20;99.90;;;;;;5025518;28;20032;-68
2022/06/09 07:59:09;;;;;;;2.30;0.30;;;12.10;99.90;;;;;;5030582;28;20036;-69
2022/06/09 08:01:37;;;;;;;1.55;0.20;;;12.10;99.90;;;;;;5026175;28;20036;-68
2022/06/09 08:04:05;;;;;;;0.95;0.30;;;12.10;99.90;;;;;;5028677;28;20464;-68
2022/06/09 08:06:33;;;;;;;0.77;0.20;;;12.10;99.90;;;;;;5027240;28;20084;-68
2022/06/09 08:09:01;;;;;;;2.92;0.38;;;12.10;99.90;;;;;;5032785;28;20021;-67
2022/06/09 08:11:32;;;;;;;1.35;0.77;;;12.00;99.90;;;;;;5023230;28;20389;-68
2022/06/09 08:14:02;;;;;;;1.38;0.82;;;12.00;99.90;;;;;;5039085;28;20045;-68
2022/06/09 08:16:30;;;;;;;3.35;2.22;;;12.00;99.90;;;;;;5029581;28;20095;-68
2022/06/09 08:18:58;;;;;;;2.65;1.83;;;12.00;99.90;;;;;;5017413;28;20030;-68
2022/06/09 08:21:27;;;;;;;1.63;0.85;;;11.90;99.90;;;;;;5018495;28;20038;-68
2022/06/09 08:23:55;;;;;;;1.75;0.40;;;11.90;99.90;;;;;;5026652;28;20025;-68
2022/06/09 08:26:22;;;;;;;1.98;0.60;;;11.90;99.90;;;;;;5030753;28;20045;-68
2022/06/09 08:28:50;;;;;;;1.05;0.40;;;11.80;99.90;;;;;;5039400;28;20389;-67
2022/06/09 08:31:17;;;;;;;1.02;0.60;;;11.80;99.90;;;;;;5031778;28;20018;-68
2022/06/09 08:33:45;;;;;;;1.52;1.15;;;11.70;99.90;;;;;;5042674;28;20026;-68
2022/06/09 08:36:13;;;;;;;2.28;1.10;;;11.70;99.90;;;;;;5021785;28;20085;-68
2022/06/09 08:38:41;;;;;;;1.75;0.73;;;11.70;99.90;;;;;;5046180;28;20013;-69
2022/06/09 08:41:40;;;;;;;1.10;0.50;;;11.70;99.90;;;;;;5034040;28;20061;-68
2022/06/09 08:44:18;;;;;;;1.52;0.73;;;11.70;99.90;;;;;;5032637;28;20486;-68
2022/06/09 08:46:57;;;;;;;1.13;0.30;;;11.80;99.90;;;;;;5014997;28;20037;-68
2022/06/09 08:49:40;;;;;;;1.17;0.40;;;11.70;99.90;;;;;;5023048;28;20056;-69
2022/06/09 08:52:46;;;;;;;1.02;0.70;;;11.80;99.90;;;;;;5017485;28;20026;-69
2022/06/09 08:55:30;;;;;;;;;;;11.70;99.90;;;;;;5017398;28;20041;-68
2022/06/09 08:58:24;;;;;;;2.25;0.68;;;11.80;99.90;;;;;;5016628;28;19909;-68
2022/06/09 09:01:03;;;;;;;3.70;1.35;;;11.80;99.90;;;;;;5022859;28;20457;-69
2022/06/09 09:03:35;;;;;;;1.02;0.63;;;11.70;99.90;;;;;;5032184;28;20076;-70
2022/06/09 09:06:18;;;;;;;1.65;0.40;;;11.70;99.90;;;;;;5029712;28;20029;-69
2022/06/09 09:08:45;;;;;;;1.48;1.00;;;11.70;99.90;;;;;;5018602;28;20488;-69
2022/06/09 09:11:15;;;;;;;5.03;2.53;;;11.70;99.90;;;;;;5026869;28;20112;-69
2022/06/09 09:14:15;;;;;;;4.57;2.42;;;11.70;99.90;;;;;;5021431;28;20018;-68
2022/06/09 09:16:59;;;;;;;2.75;1.27;;;11.60;99.90;;;;;;5032142;28;20045;-68
2022/06/09 09:19:38;;;;;;;2.70;0.43;;;11.60;99.90;;;;;;5035092;28;20018;-68
2022/06/09 09:22:21;;;;;;;0.55;0.40;;;11.50;99.90;;;;;;5022190;28;20026;-69
2022/06/09 09:25:15;;;;;;;0.40;0.30;;;11.50;99.90;;;;;;5041978;28;20032;-69
2022/06/09 09:28:01;;;;;;;3.72;1.85;;;11.50;99.90;;;;;;5029984;28;20136;-68
2022/06/09 09:30:54;;;;;;;1.80;0.70;;;11.30;99.90;;;;;;5021800;28;20034;-67
2022/06/09 09:33:22;;;;;;;1.73;0.50;;;11.30;99.90;;;;;;5028324;28;20064;-67
2022/06/09 09:36:14;;;;;;;1.92;0.40;;;11.30;99.90;;;;;;5013287;28;20068;-68
2022/06/09 09:38:49;;;;;;;1.92;0.50;;;11.30;99.90;;;;;;5023785;28;20049;-68
2022/06/09 09:41:38;;;;;;;0.60;0.40;;;11.30;99.90;;;;;;5017891;28;20022;-68
2022/06/09 09:44:19;;;;;;;1.15;0.90;;;11.30;99.90;;;;;;5013821;28;20494;-68
2022/06/09 09:46:56;;;;;;;3.88;2.03;;;11.30;99.90;;;;;;5016798;28;20076;-68
2022/06/09 09:49:44;;;;;;;2.72;0.60;;;11.30;99.90;;;;;;5014871;28;20397;-68
2022/06/09 09:52:36;;;;;;;1.35;0.60;;;11.30;99.90;;;;;;5026527;28;20091;-68
2022/06/09 09:55:05;;;;;;;2.88;0.80;;;11.30;99.90;;;;;;5033742;28;20054;-68
2022/06/09 09:57:33;;;;;;;3.45;0.70;;;11.20;99.90;;;;;;5018534;28;20025;-68
2022/06/09 10:00:00;;;;;;;0.70;0.40;;;11.20;99.90;;;;;;5019400;28;20026;-68
2022/06/09 10:08:41;;;;;;;1.90;0.77;;;11.20;99.90;;;;;;5019226;28;20102;-68
2022/06/09 10:14:24;;;;;;;1.33;0.60;;;11.20;99.90;;;;;;5013672;28;20084;-68
2022/06/09 10:16:54;;;;;;;1.85;0.68;;;11.20;99.90;;;;;;5015712;28;20462;-69
2022/06/09 10:19:25;;;;;;;0.73;0.50;;;11.10;99.90;;;;;;5018022;28;20162;-68
2022/06/09 10:22:02;;;;;;;2.30;0.30;;;11.10;99.90;;;;;;5020498;28;20042;-68
2022/06/09 10:25:01;;;;;;;1.10;0.50;;;11.00;99.90;;;;;;5032195;28;20028;-68
2022/06/09 10:27:34;;;;;;;2.17;0.32;;;11.00;99.90;;;;;;5033119;28;20478;-69
2022/06/09 10:30:20;;;;;;;2.08;0.40;;;11.00;99.90;;;;;;5022979;28;20014;-68
2022/06/09 10:32:57;;;;;;;1.45;0.57;;;11.00;99.90;;;;;;5028699;28;20071;-68
2022/06/09 10:35:32;;;;;;;1.25;0.60;;;11.00;99.90;;;;;;5044379;28;20025;-68
2022/06/09 10:38:37;;;;;;;1.30;0.70;;;10.90;99.90;;;;;;5049464;28;20965;-68
2022/06/09 10:41:14;;;;;;;2.60;0.70;;;10.90;99.90;;;;;;5032676;28;20120;-68
2022/06/09 10:43:58;;;;;;;2.63;0.80;;;10.90;99.90;;;;;;5014382;28;20385;-68
2022/06/09 10:56:00;;;;;;;3.35;0.90;;;10.70;99.90;;;;;;5045845;28;20539;-68
2022/06/09 10:58:45;;;;;;;4.07;0.57;;;10.70;99.90;;;;;;5029993;28;20401;-68
2022/06/09 11:01:29;;;;;;;1.83;0.73;;;10.70;99.90;;;;;;5012065;28;20032;-68
2022/06/09 11:03:57;;;;;;;1.60;0.55;;;10.70;99.90;;;;;;5030722;28;20329;-68
2022/06/09 11:06:53;;;;;;;1.75;0.60;;;10.70;99.90;;;;;;5034506;28;20049;-69
2022/06/09 11:09:46;;;;;;;3.92;0.90;;;10.80;99.90;;;;;;5027167;28;20485;-68
2022/06/09 11:12:34;;;;;;;1.40;0.60;;;10.80;99.90;;;;;;5013263;28;20026;-68
2022/06/09 11:15:16;;;;;;;1.95;0.82;;;10.80;99.90;;;;;;5024783;28;20017;-68
2022/06/09 11:18:11;;;;;;;3.25;0.88;;;10.70;99.90;;;;;;5032871;28;20056;-68
2022/06/09 11:21:11;;;;;;;2.85;0.60;;;10.80;99.90;;;;;;5029945;28;20033;-68
2022/06/09 11:23:57;;;;;;;2.10;0.80;;;10.70;99.90;;;;;;5017348;28;20061;-68
2022/06/09 11:26:24;;;;;;;1.85;0.90;;;10.70;99.90;;;;;;5028739;28;20040;-68
2022/06/09 11:29:29;;;;;;;2.28;0.80;;;10.70;99.90;;;;;;5024050;28;20021;-68
2022/06/09 11:32:16;;;;;;;1.63;0.60;;;10.60;99.90;;;;;;5036630;28;20051;-69
2022/06/09 11:35:03;;;;;;;2.30;0.60;;;10.60;99.90;;;;;;5043062;28;20067;-69
2022/06/09 11:37:57;;;;;;;1.60;0.60;;;10.70;99.90;;;;;;5026932;28;20108;-69
2022/06/09 11:40:42;;;;;;;1.52;0.57;;;10.80;99.90;;;;;;5026777;28;21416;-68
2022/06/09 11:43:37;;;;;;;1.38;0.57;;;10.60;99.90;;;;;;5020449;28;20030;-68
2022/06/09 11:46:24;;;;;;;1.85;0.50;;;10.60;99.90;;;;;;5012267;28;20041;-68
2022/06/09 11:49:02;;;;;;;0.93;0.50;;;10.60;99.90;;;;;;5026010;28;20040;-68
2022/06/09 11:51:33;;;;;;;1.92;0.68;;;10.70;99.90;;;;;;5031275;28;20029;-68
2022/06/09 11:54:04;;;;;;;1.42;0.60;;;10.60;99.90;;;;;;5023459;28;20081;-68
2022/06/09 11:56:34;;;;;;;1.23;0.40;;;10.60;99.90;;;;;;5016835;28;20064;-68
2022/06/09 11:59:16;;;;;;;1.55;0.50;;;10.60;99.90;;;;;;5013926;28;20083;-69
2022/06/09 12:02:10;;;;;;;1.90;0.85;;;10.50;99.90;;;;;;5016865;28;20069;-68
2022/06/09 12:05:10;;;;;;;1.85;0.73;;;10.60;99.90;;;;;;5035751;28;20092;-69
2022/06/09 12:08:08;;;;;;;0.75;0.38;;;10.60;99.90;;;;;;5023263;28;20083;-68
2022/06/09 12:10:42;;;;;;;2.53;0.47;;;10.60;99.90;;;;;;5015405;28;20072;-69
2022/06/09 12:13:15;;;;;;;;;;;10.60;99.90;;;;;;5025529;28;20029;-68
2022/06/09 12:16:05;;;;;;;0.88;0.45;;;10.70;99.90;;;;;;5016932;28;19991;-68
2022/06/09 12:18:48;;;;;;;1.75;0.45;;;10.60;99.90;;;;;;5017356;28;20478;-68
2022/06/09 12:21:34;;;;;;;2.55;0.60;;;10.60;99.90;;;;;;5012633;28;20035;-68
2022/06/09 12:24:04;;;;;;;1.50;0.57;;;10.60;99.90;;;;;;5015838;28;20514;-68
2022/06/09 12:26:42;;;;;;;1.70;0.70;;;10.60;99.90;;;;;;5013649;28;20112;-68
2022/06/09 12:29:45;;;;;;;1.70;0.40;;;10.50;99.90;;;;;;5015833;28;20061;-68
2022/06/09 12:32:18;;;;;;;1.10;0.70;;;10.50;99.90;;;;;;5017383;28;20129;-68
2022/06/09 12:34:52;;;;;;;1.83;0.75;;;10.50;99.90;;;;;;5024367;28;20128;-68
2022/06/09 12:37:28;;;;;;;1.48;0.60;;;10.50;99.90;;;;;;5024176;28;20026;-68
2022/06/09 12:40:02;;;;;;;2.08;0.90;;;10.40;99.90;;;;;;5021072;28;20030;-68
2022/06/09 12:42:44;;;;;;;2.72;0.60;;;10.50;99.90;;;;;;5019956;28;20091;-68
2022/06/09 12:45:17;;;;;;;3.40;0.60;;;10.40;99.90;;;;;;5021224;28;20029;-68
2022/06/09 12:48:02;;;;;;;2.45;1.67;;;10.40;99.90;;;;;;5019220;28;20021;-68
2022/06/09 12:50:38;;;;;;;1.25;0.40;;;10.40;99.90;;;;;;5027312;28;20104;-68
2022/06/09 12:53:07;;;;;;;2.90;0.77;;;10.40;99.90;;;;;;5023089;28;20101;-68
2022/06/09 12:55:42;;;;;;;1.65;0.60;;;10.30;99.90;;;;;;5024764;28;20108;-68
2022/06/09 12:58:35;;;;;;;1.33;0.47;;;10.30;99.90;;;;;;5021371;28;20057;-68
2022/06/09 13:01:06;;;;;;;2.17;0.50;;;10.40;99.90;;;;;;5024545;28;20021;-68
2022/06/09 13:03:40;;;;;;;1.17;0.50;;;10.40;99.90;;;;;;5019545;28;20494;-68
2022/06/09 13:06:25;;;;;;;1.45;0.40;;;10.40;99.90;;;;;;5020098;28;20071;-68
2022/06/09 13:08:58;;;;;;;1.00;0.50;;;10.40;99.90;;;;;;5020980;28;20030;-68
2022/06/09 13:14:26;;;;;;;0.75;0.25;;;10.40;99.90;;;;;;5021133;28;20044;-68
2022/06/09 13:17:00;;;;;;;1.13;0.40;;;10.40;99.90;;;;;;5020843;28;20191;-68
2022/06/09 13:19:29;;;;;;;0.90;0.30;;;10.40;99.90;;;;;;5025209;28;20479;-67
2022/06/09 13:22:01;;;;;;;1.30;0.20;;;10.30;99.90;;;;;;5021877;28;20061;-68
2022/06/09 13:24:31;;;;;;;1.55;0.50;;;10.30;99.90;;;;;;5021443;28;20025;-68
2022/06/09 13:27:03;;;;;;;1.75;0.40;;;10.30;99.90;;;;;;5025047;28;20060;-68
2022/06/09 13:29:38;;;;;;;1.27;0.30;;;10.20;99.90;;;;;;5019704;28;20513;-68
2022/06/09 13:32:10;;;;;;;;;;;10.30;99.90;;;;;;5022175;28;20033;-68
2022/06/09 13:34:44;;;;;;;0.77;0.20;;;10.40;99.90;;;;;;5023737;28;20415;-68
2022/06/09 13:37:15;;;;;;;1.23;0.40;;;10.30;99.90;;;;;;5019047;28;20486;-68
2022/06/09 13:40:03;;;;;;;0.47;0.30;;;10.40;99.90;;;;;;5031764;28;20270;-68
2022/06/09 13:42:41;;;;;;;1.25;0.43;;;10.30;99.90;;;;;;5041808;28;20025;-68
2022/06/09 13:45:34;;;;;;;2.10;0.45;;;10.30;99.90;;;;;;5023763;28;20029;-68
2022/06/09 13:48:13;;;;;;;1.20;0.50;;;10.20;99.90;;;;;;5023415;28;20029;-68
2022/06/09 13:50:46;;;;;;;1.30;0.38;;;10.10;99.90;;;;;;5018266;28;20108;-68
2022/06/09 13:53:29;;;;;;;1.00;0.30;;;10.20;99.90;;;;;;5020186;28;20034;-68
2022/06/09 13:55:56;;;;;;;0.85;0.20;;;10.20;99.90;;;;;;5020066;28;20018;-68